This is the latest recevied weather packets stored in our database for station/object OE-11372. If no packets are shown the sender has not sent any weather packets the latest 10 day(s).
| Time | Temp. | Humidity | Pressure | Rain* | Wind** | Luminosity | Snow |
|---|---|---|---|---|---|---|---|
| 1787681476 | 14.44° C | 94% | 852.3 hPa | 1.02 mm | - | 0 W/m² | - |
| 1787681103 | 14.44° C | 94% | 852.1 hPa | 1.27 mm | - | 8 W/m² | - |
| 1787680503 | 14.44° C | 94% | 852 hPa | 1.78 mm | - | 8 W/m² | - |
| 1787679676 | 14.44° C | 94% | 852.1 hPa | 1.78 mm | - | 16 W/m² | - |
| 1787679303 | 14.44° C | 93% | 852.1 hPa | 2.29 mm | - | 8 W/m² | - |
| 1787678703 | 14.44° C | 92% | 851.9 hPa | 2.54 mm | - | 16 W/m² | - |
| 1787677876 | 14.44° C | 93% | 851.8 hPa | 2.79 mm | - | 16 W/m² | - |
| 1787677503 | 14.44° C | 94% | 851.7 hPa | 2.54 mm | - | 16 W/m² | - |
| 1787676902 | 14.44° C | 94% | 851.5 hPa | 2.79 mm | - | 16 W/m² | - |
| 1787676076 | 14.44° C | 94% | 851.3 hPa | 2.54 mm | - | 16 W/m² | - |
| 1787675703 | 14.44° C | 93% | 850.9 hPa | 2.54 mm | - | 33 W/m² | - |
| 1787675102 | 15° C | 91% | 850.8 hPa | 2.03 mm | - | 41 W/m² | - |
| 1787674276 | 15° C | 90% | 850.7 hPa | 1.52 mm | - | 33 W/m² | - |
| 1787673903 | 15° C | 90% | 850.7 hPa | 1.27 mm | - | 41 W/m² | - |
| 1787673303 | 15.56° C | 89% | 850.5 hPa | 1.27 mm | - | 49 W/m² | - |
| 1787672476 | 15.56° C | 88% | 850.5 hPa | 0.76 mm | - | 49 W/m² | - |
| 1787672103 | 16.67° C | 84% | 850.5 hPa | 0.25 mm | - | 49 W/m² | - |
| 1787671503 | 17.78° C | 74% | 850.1 hPa | 0 mm | - | 41 W/m² | - |
| 1787670676 | 18.33° C | 69% | 850.2 hPa | 0 mm | - | 74 W/m² | - |
| 1787670302 | 18.33° C | 70% | 850 hPa | 0 mm | - | 91 W/m² | - |
| 1787669703 | 18.89° C | 70% | 849.8 hPa | 0 mm | - | 115 W/m² | - |
| 1787668876 | 18.89° C | 69% | 849.7 hPa | 0 mm | - | 173 W/m² | - |
| 1787668503 | 19.44° C | 69% | 849.7 hPa | 0 mm | - | 222 W/m² | - |
| 1787667902 | 19.44° C | 70% | 849.6 hPa | 0 mm | - | 338 W/m² | - |
| 1787667076 | 18.89° C | 70% | 849.7 hPa | 0 mm | - | 329 W/m² | - |
* Rain latest hour (hover to see other rain measurements)
** Current wind speed in m/s (hover to see current wind gust speed)